sensor_id;sensor_type;location;lat;lon;timestamp;temperature;humidity
3701;DHT22;1866;48.374;10.766;2022-11-20T00:01:19;5.20;99.90
3701;DHT22;1866;48.374;10.766;2022-11-20T00:03:46;5.10;99.90
3701;DHT22;1866;48.374;10.766;2022-11-20T00:06:14;5.20;99.90
3701;DHT22;1866;48.374;10.766;2022-11-20T00:08:42;5.10;99.90
3701;DHT22;1866;48.374;10.766;2022-11-20T00:11:11;5.10;99.90
3701;DHT22;1866;48.374;10.766;2022-11-20T00:13:39;5.00;99.90
3701;DHT22;1866;48.374;10.766;2022-11-20T00:16:08;5.10;99.90
3701;DHT22;1866;48.374;10.766;2022-11-20T00:18:36;5.10;99.90
3701;DHT22;1866;48.374;10.766;2022-11-20T00:21:03;5.00;99.90
3701;DHT22;1866;48.374;10.766;2022-11-20T00:23:33;5.00;99.90
3701;DHT22;1866;48.374;10.766;2022-11-20T00:26:02;5.00;99.90
3701;DHT22;1866;48.374;10.766;2022-11-20T00:28:30;5.10;99.90
3701;DHT22;1866;48.374;10.766;2022-11-20T00:31:02;5.10;99.90
3701;DHT22;1866;48.374;10.766;2022-11-20T00:33:30;5.10;99.90
3701;DHT22;1866;48.374;10.766;2022-11-20T00:36:01;5.00;99.90
3701;DHT22;1866;48.374;10.766;2022-11-20T00:38:29;5.00;99.90
3701;DHT22;1866;48.374;10.766;2022-11-20T00:40:57;4.90;99.90
3701;DHT22;1866;48.374;10.766;2022-11-20T00:43:24;4.90;99.90
3701;DHT22;1866;48.374;10.766;2022-11-20T00:48:23;5.00;99.90
3701;DHT22;1866;48.374;10.766;2022-11-20T00:50:51;5.00;99.90
3701;DHT22;1866;48.374;10.766;2022-11-20T00:53:21;4.90;99.90
3701;DHT22;1866;48.374;10.766;2022-11-20T00:55:58;4.90;99.90
3701;DHT22;1866;48.374;10.766;2022-11-20T00:58:30;4.90;99.90
3701;DHT22;1866;48.374;10.766;2022-11-20T01:01:03;4.90;99.90
3701;DHT22;1866;48.374;10.766;2022-11-20T01:03:32;4.90;99.90
3701;DHT22;1866;48.374;10.766;2022-11-20T01:06:00;4.90;99.90
3701;DHT22;1866;48.374;10.766;2022-11-20T01:08:32;4.80;99.90
3701;DHT22;1866;48.374;10.766;2022-11-20T01:11:00;4.80;99.90
3701;DHT22;1866;48.374;10.766;2022-11-20T01:13:28;4.80;99.90
3701;DHT22;1866;48.374;10.766;2022-11-20T01:16:04;4.80;99.90
3701;DHT22;1866;48.374;10.766;2022-11-20T01:18:34;4.70;99.90
3701;DHT22;1866;48.374;10.766;2022-11-20T01:21:02;4.80;99.90
3701;DHT22;1866;48.374;10.766;2022-11-20T01:23:31;4.70;99.90
3701;DHT22;1866;48.374;10.766;2022-11-20T01:26:00;4.70;99.90
3701;DHT22;1866;48.374;10.766;2022-11-20T01:28:27;4.70;99.90
3701;DHT22;1866;48.374;10.766;2022-11-20T01:30:54;4.70;99.20
3701;DHT22;1866;48.374;10.766;2022-11-20T01:33:21;4.70;99.90
3701;DHT22;1866;48.374;10.766;2022-11-20T01:35:49;4.70;99.90
3701;DHT22;1866;48.374;10.766;2022-11-20T01:38:16;4.70;98.20
3701;DHT22;1866;48.374;10.766;2022-11-20T01:40:43;4.80;94.80
3701;DHT22;1866;48.374;10.766;2022-11-20T01:43:14;4.80;95.00
3701;DHT22;1866;48.374;10.766;2022-11-20T01:46:04;4.70;91.00
3701;DHT22;1866;48.374;10.766;2022-11-20T01:48:35;4.80;99.30
3701;DHT22;1866;48.374;10.766;2022-11-20T01:51:09;4.80;95.80
3701;DHT22;1866;48.374;10.766;2022-11-20T01:53:37;4.80;82.20
3701;DHT22;1866;48.374;10.766;2022-11-20T01:56:06;4.80;65.30
3701;DHT22;1866;48.374;10.766;2022-11-20T01:58:37;4.80;72.20
3701;DHT22;1866;48.374;10.766;2022-11-20T02:01:06;4.80;73.20
3701;DHT22;1866;48.374;10.766;2022-11-20T02:03:33;4.80;77.10
3701;DHT22;1866;48.374;10.766;2022-11-20T02:06:07;4.80;87.60
3701;DHT22;1866;48.374;10.766;2022-11-20T02:08:36;4.70;86.40
3701;DHT22;1866;48.374;10.766;2022-11-20T02:11:04;4.80;73.00
3701;DHT22;1866;48.374;10.766;2022-11-20T02:13:32;4.80;70.30
3701;DHT22;1866;48.374;10.766;2022-11-20T02:16:15;4.70;72.40
3701;DHT22;1866;48.374;10.766;2022-11-20T02:18:43;4.60;93.40
3701;DHT22;1866;48.374;10.766;2022-11-20T02:21:22;4.60;94.90
3701;DHT22;1866;48.374;10.766;2022-11-20T02:24:11;4.50;99.90
3701;DHT22;1866;48.374;10.766;2022-11-20T02:26:44;4.40;99.90
3701;DHT22;1866;48.374;10.766;2022-11-20T02:29:15;4.30;99.90
3701;DHT22;1866;48.374;10.766;2022-11-20T02:31:43;4.30;99.90
3701;DHT22;1866;48.374;10.766;2022-11-20T02:34:11;4.30;99.90
3701;DHT22;1866;48.374;10.766;2022-11-20T02:36:39;4.40;99.90
3701;DHT22;1866;48.374;10.766;2022-11-20T02:39:07;4.30;99.90
3701;DHT22;1866;48.374;10.766;2022-11-20T02:41:37;4.30;99.90
3701;DHT22;1866;48.374;10.766;2022-11-20T02:44:05;4.30;99.90
3701;DHT22;1866;48.374;10.766;2022-11-20T02:46:33;4.30;98.00
3701;DHT22;1866;48.374;10.766;2022-11-20T02:49:01;4.30;99.90
3701;DHT22;1866;48.374;10.766;2022-11-20T02:51:28;4.20;99.90
3701;DHT22;1866;48.374;10.766;2022-11-20T02:53:55;4.30;99.90
3701;DHT22;1866;48.374;10.766;2022-11-20T02:56:22;4.20;99.90
3701;DHT22;1866;48.374;10.766;2022-11-20T02:58:50;4.30;99.90
3701;DHT22;1866;48.374;10.766;2022-11-20T03:01:17;4.40;97.70
3701;DHT22;1866;48.374;10.766;2022-11-20T03:03:44;4.40;90.00
3701;DHT22;1866;48.374;10.766;2022-11-20T03:06:11;4.50;59.60
3701;DHT22;1866;48.374;10.766;2022-11-20T03:08:38;4.50;50.70
3701;DHT22;1866;48.374;10.766;2022-11-20T03:11:06;4.50;42.00
3701;DHT22;1866;48.374;10.766;2022-11-20T03:13:34;4.50;35.20
3701;DHT22;1866;48.374;10.766;2022-11-20T03:16:10;4.60;22.30
3701;DHT22;1866;48.374;10.766;2022-11-20T03:18:37;4.60;15.70
3701;DHT22;1866;48.374;10.766;2022-11-20T03:21:04;4.70;9.10
3701;DHT22;1866;48.374;10.766;2022-11-20T03:23:32;4.70;10.90
3701;DHT22;1866;48.374;10.766;2022-11-20T03:26:13;4.70;1.00
3701;DHT22;1866;48.374;10.766;2022-11-20T03:28:41;4.60;1.00
3701;DHT22;1866;48.374;10.766;2022-11-20T03:31:11;4.60;1.00
3701;DHT22;1866;48.374;10.766;2022-11-20T03:33:39;4.60;4.50
3701;DHT22;1866;48.374;10.766;2022-11-20T03:36:08;4.60;9.80
3701;DHT22;1866;48.374;10.766;2022-11-20T03:38:36;4.60;9.90
3701;DHT22;1866;48.374;10.766;2022-11-20T03:41:05;4.60;1.00
3701;DHT22;1866;48.374;10.766;2022-11-20T03:43:33;4.60;10.30
3701;DHT22;1866;48.374;10.766;2022-11-20T03:46:01;4.50;14.90
3701;DHT22;1866;48.374;10.766;2022-11-20T03:48:29;4.50;20.30
3701;DHT22;1866;48.374;10.766;2022-11-20T03:51:07;4.50;21.90
3701;DHT22;1866;48.374;10.766;2022-11-20T03:53:34;4.40;22.70
3701;DHT22;1866;48.374;10.766;2022-11-20T03:56:01;4.50;18.80
3701;DHT22;1866;48.374;10.766;2022-11-20T03:58:28;4.50;21.10
3701;DHT22;1866;48.374;10.766;2022-11-20T04:00:55;4.50;15.00
3701;DHT22;1866;48.374;10.766;2022-11-20T04:03:22;4.50;22.00
3701;DHT22;1866;48.374;10.766;2022-11-20T04:05:50;4.50;8.90
3701;DHT22;1866;48.374;10.766;2022-11-20T04:08:17;4.50;5.20
3701;DHT22;1866;48.374;10.766;2022-11-20T04:10:44;4.50;8.70
3701;DHT22;1866;48.374;10.766;2022-11-20T04:13:10;4.50;7.60
3701;DHT22;1866;48.374;10.766;2022-11-20T04:15:37;4.50;6.50
3701;DHT22;1866;48.374;10.766;2022-11-20T04:18:04;4.50;5.90
3701;DHT22;1866;48.374;10.766;2022-11-20T04:20:31;4.50;1.00
3701;DHT22;1866;48.374;10.766;2022-11-20T04:22:59;4.50;1.00
3701;DHT22;1866;48.374;10.766;2022-11-20T04:25:26;4.60;2.60
3701;DHT22;1866;48.374;10.766;2022-11-20T04:27:53;4.50;1.00
3701;DHT22;1866;48.374;10.766;2022-11-20T04:30:20;4.50;7.80
3701;DHT22;1866;48.374;10.766;2022-11-20T04:32:47;4.60;10.90
3701;DHT22;1866;48.374;10.766;2022-11-20T04:35:14;4.50;12.60
3701;DHT22;1866;48.374;10.766;2022-11-20T04:37:41;4.50;21.40
3701;DHT22;1866;48.374;10.766;2022-11-20T04:40:10;4.40;8.60
3701;DHT22;1866;48.374;10.766;2022-11-20T04:42:37;4.40;14.10
3701;DHT22;1866;48.374;10.766;2022-11-20T04:45:05;4.50;6.90
3701;DHT22;1866;48.374;10.766;2022-11-20T04:47:32;4.50;1.00
3701;DHT22;1866;48.374;10.766;2022-11-20T04:50:00;4.50;1.00
3701;DHT22;1866;48.374;10.766;2022-11-20T04:52:27;4.40;1.00
3701;DHT22;1866;48.374;10.766;2022-11-20T04:54:53;4.40;5.30
3701;DHT22;1866;48.374;10.766;2022-11-20T04:57:22;4.30;13.40
3701;DHT22;1866;48.374;10.766;2022-11-20T04:59:49;4.40;15.40
3701;DHT22;1866;48.374;10.766;2022-11-20T05:02:15;4.30;10.70
3701;DHT22;1866;48.374;10.766;2022-11-20T05:04:42;4.50;1.00
3701;DHT22;1866;48.374;10.766;2022-11-20T05:07:09;4.40;1.00
3701;DHT22;1866;48.374;10.766;2022-11-20T05:09:36;4.40;1.00
3701;DHT22;1866;48.374;10.766;2022-11-20T05:12:03;4.40;1.10
3701;DHT22;1866;48.374;10.766;2022-11-20T05:14:32;4.40;1.00
3701;DHT22;1866;48.374;10.766;2022-11-20T05:16:59;4.50;1.00
3701;DHT22;1866;48.374;10.766;2022-11-20T05:19:26;4.30;1.00
3701;DHT22;1866;48.374;10.766;2022-11-20T05:21:53;4.20;11.30
3701;DHT22;1866;48.374;10.766;2022-11-20T05:24:20;4.20;15.90
3701;DHT22;1866;48.374;10.766;2022-11-20T05:26:47;4.30;18.80
3701;DHT22;1866;48.374;10.766;2022-11-20T05:29:14;4.30;3.30
3701;DHT22;1866;48.374;10.766;2022-11-20T05:31:43;4.30;6.10
3701;DHT22;1866;48.374;10.766;2022-11-20T05:34:10;4.30;1.00
3701;DHT22;1866;48.374;10.766;2022-11-20T05:36:37;4.40;1.00
3701;DHT22;1866;48.374;10.766;2022-11-20T05:39:04;4.40;1.00
3701;DHT22;1866;48.374;10.766;2022-11-20T05:41:33;4.40;1.00
3701;DHT22;1866;48.374;10.766;2022-11-20T05:44:00;4.30;1.00
3701;DHT22;1866;48.374;10.766;2022-11-20T05:46:27;4.30;4.00
3701;DHT22;1866;48.374;10.766;2022-11-20T05:48:56;4.30;16.40
3701;DHT22;1866;48.374;10.766;2022-11-20T05:51:24;4.30;17.40
3701;DHT22;1866;48.374;10.766;2022-11-20T05:53:51;4.30;12.70
3701;DHT22;1866;48.374;10.766;2022-11-20T05:56:19;4.50;1.00
3701;DHT22;1866;48.374;10.766;2022-11-20T05:58:47;4.50;1.00
3701;DHT22;1866;48.374;10.766;2022-11-20T06:01:17;4.50;1.00
3701;DHT22;1866;48.374;10.766;2022-11-20T06:03:44;4.60;1.00
3701;DHT22;1866;48.374;10.766;2022-11-20T06:06:15;4.50;1.00
3701;DHT22;1866;48.374;10.766;2022-11-20T06:08:42;4.40;1.00
3701;DHT22;1866;48.374;10.766;2022-11-20T06:11:10;4.50;1.00
3701;DHT22;1866;48.374;10.766;2022-11-20T06:13:38;4.50;1.00
3701;DHT22;1866;48.374;10.766;2022-11-20T06:16:06;4.50;1.00
3701;DHT22;1866;48.374;10.766;2022-11-20T06:18:33;4.50;1.00
3701;DHT22;1866;48.374;10.766;2022-11-20T06:21:01;4.40;1.00
3701;DHT22;1866;48.374;10.766;2022-11-20T06:23:31;4.40;1.00
3701;DHT22;1866;48.374;10.766;2022-11-20T06:26:01;4.40;1.00
3701;DHT22;1866;48.374;10.766;2022-11-20T06:28:28;4.50;1.00
3701;DHT22;1866;48.374;10.766;2022-11-20T06:30:57;4.50;1.00
3701;DHT22;1866;48.374;10.766;2022-11-20T06:33:25;4.50;1.00
3701;DHT22;1866;48.374;10.766;2022-11-20T06:35:52;4.60;1.00
3701;DHT22;1866;48.374;10.766;2022-11-20T06:38:19;4.60;1.00
3701;DHT22;1866;48.374;10.766;2022-11-20T06:40:48;4.60;1.00
3701;DHT22;1866;48.374;10.766;2022-11-20T06:43:15;4.60;1.00
3701;DHT22;1866;48.374;10.766;2022-11-20T06:45:41;4.60;1.00
3701;DHT22;1866;48.374;10.766;2022-11-20T06:48:10;4.60;1.00
3701;DHT22;1866;48.374;10.766;2022-11-20T06:50:38;4.60;1.00
3701;DHT22;1866;48.374;10.766;2022-11-20T06:53:05;4.60;1.00
3701;DHT22;1866;48.374;10.766;2022-11-20T06:55:32;4.70;1.00
3701;DHT22;1866;48.374;10.766;2022-11-20T06:58:01;4.70;1.00
3701;DHT22;1866;48.374;10.766;2022-11-20T07:00:28;4.70;1.00
3701;DHT22;1866;48.374;10.766;2022-11-20T07:02:55;4.70;1.00
3701;DHT22;1866;48.374;10.766;2022-11-20T07:05:25;4.80;1.00
3701;DHT22;1866;48.374;10.766;2022-11-20T07:07:55;4.80;1.00
3701;DHT22;1866;48.374;10.766;2022-11-20T07:10:23;4.80;1.00
3701;DHT22;1866;48.374;10.766;2022-11-20T07:12:53;4.90;1.00
3701;DHT22;1866;48.374;10.766;2022-11-20T07:15:23;4.90;1.00
3701;DHT22;1866;48.374;10.766;2022-11-20T07:17:51;4.90;1.00
3701;DHT22;1866;48.374;10.766;2022-11-20T07:20:18;4.90;1.00
3701;DHT22;1866;48.374;10.766;2022-11-20T07:22:46;5.00;1.00
3701;DHT22;1866;48.374;10.766;2022-11-20T07:25:15;5.00;1.00
3701;DHT22;1866;48.374;10.766;2022-11-20T07:27:42;5.00;1.00
3701;DHT22;1866;48.374;10.766;2022-11-20T07:30:10;5.00;1.00
3701;DHT22;1866;48.374;10.766;2022-11-20T07:32:38;5.00;1.00
3701;DHT22;1866;48.374;10.766;2022-11-20T07:35:06;5.10;1.00
3701;DHT22;1866;48.374;10.766;2022-11-20T07:37:34;5.10;1.00
3701;DHT22;1866;48.374;10.766;2022-11-20T07:40:01;5.20;1.00
3701;DHT22;1866;48.374;10.766;2022-11-20T07:42:29;5.20;1.00
3701;DHT22;1866;48.374;10.766;2022-11-20T07:44:56;5.30;1.00
3701;DHT22;1866;48.374;10.766;2022-11-20T07:47:23;5.30;1.00
3701;DHT22;1866;48.374;10.766;2022-11-20T07:49:52;5.30;1.00
3701;DHT22;1866;48.374;10.766;2022-11-20T07:52:19;5.30;1.00
3701;DHT22;1866;48.374;10.766;2022-11-20T07:54:46;5.30;1.00
3701;DHT22;1866;48.374;10.766;2022-11-20T07:57:13;5.30;1.00
3701;DHT22;1866;48.374;10.766;2022-11-20T07:59:40;5.40;1.00
3701;DHT22;1866;48.374;10.766;2022-11-20T08:02:11;5.40;1.00
3701;DHT22;1866;48.374;10.766;2022-11-20T08:04:38;5.40;1.00
3701;DHT22;1866;48.374;10.766;2022-11-20T08:07:07;5.40;1.00
3701;DHT22;1866;48.374;10.766;2022-11-20T08:09:39;5.50;1.00
3701;DHT22;1866;48.374;10.766;2022-11-20T08:12:07;5.50;1.00
3701;DHT22;1866;48.374;10.766;2022-11-20T08:14:52;5.60;1.00
3701;DHT22;1866;48.374;10.766;2022-11-20T08:17:21;5.60;1.00
3701;DHT22;1866;48.374;10.766;2022-11-20T08:19:48;5.60;1.00
3701;DHT22;1866;48.374;10.766;2022-11-20T08:22:17;5.70;1.00
3701;DHT22;1866;48.374;10.766;2022-11-20T08:24:46;5.60;1.00
3701;DHT22;1866;48.374;10.766;2022-11-20T08:27:13;5.60;1.00
3701;DHT22;1866;48.374;10.766;2022-11-20T08:29:42;5.60;1.00
3701;DHT22;1866;48.374;10.766;2022-11-20T08:32:10;5.60;1.00
3701;DHT22;1866;48.374;10.766;2022-11-20T08:34:37;5.60;1.00
3701;DHT22;1866;48.374;10.766;2022-11-20T08:37:04;5.60;1.00
3701;DHT22;1866;48.374;10.766;2022-11-20T08:39:32;5.60;1.00
3701;DHT22;1866;48.374;10.766;2022-11-20T08:41:59;5.60;1.00
3701;DHT22;1866;48.374;10.766;2022-11-20T08:44:28;5.70;1.00
3701;DHT22;1866;48.374;10.766;2022-11-20T08:46:56;5.70;1.00
3701;DHT22;1866;48.374;10.766;2022-11-20T08:49:24;5.70;1.00
3701;DHT22;1866;48.374;10.766;2022-11-20T08:51:51;5.70;1.00
3701;DHT22;1866;48.374;10.766;2022-11-20T08:54:20;5.70;1.00
3701;DHT22;1866;48.374;10.766;2022-11-20T08:56:49;5.80;1.00
3701;DHT22;1866;48.374;10.766;2022-11-20T08:59:18;5.80;1.00
3701;DHT22;1866;48.374;10.766;2022-11-20T09:01:45;5.80;1.00
3701;DHT22;1866;48.374;10.766;2022-11-20T09:04:13;5.90;1.00
3701;DHT22;1866;48.374;10.766;2022-11-20T09:06:40;5.90;1.00
3701;DHT22;1866;48.374;10.766;2022-11-20T09:09:07;5.90;1.00
3701;DHT22;1866;48.374;10.766;2022-11-20T09:11:34;6.00;1.00
3701;DHT22;1866;48.374;10.766;2022-11-20T09:14:04;6.00;1.00
3701;DHT22;1866;48.374;10.766;2022-11-20T09:16:31;6.00;1.00
3701;DHT22;1866;48.374;10.766;2022-11-20T09:18:58;6.00;1.00
3701;DHT22;1866;48.374;10.766;2022-11-20T09:21:27;6.00;1.00
3701;DHT22;1866;48.374;10.766;2022-11-20T09:23:54;6.00;1.00
3701;DHT22;1866;48.374;10.766;2022-11-20T09:26:21;6.10;1.00
3701;DHT22;1866;48.374;10.766;2022-11-20T09:28:48;6.10;1.00
3701;DHT22;1866;48.374;10.766;2022-11-20T09:31:22;6.20;1.00
3701;DHT22;1866;48.374;10.766;2022-11-20T09:33:51;6.30;1.00
3701;DHT22;1866;48.374;10.766;2022-11-20T09:36:18;6.30;1.00
3701;DHT22;1866;48.374;10.766;2022-11-20T09:38:45;6.30;1.00
3701;DHT22;1866;48.374;10.766;2022-11-20T09:44:24;6.40;1.00
3701;DHT22;1866;48.374;10.766;2022-11-20T09:47:00;6.60;1.00
3701;DHT22;1866;48.374;10.766;2022-11-20T09:49:35;6.60;1.00
3701;DHT22;1866;48.374;10.766;2022-11-20T09:52:18;6.50;1.00
3701;DHT22;1866;48.374;10.766;2022-11-20T09:54:51;6.50;1.00
3701;DHT22;1866;48.374;10.766;2022-11-20T09:57:21;6.60;1.00
3701;DHT22;1866;48.374;10.766;2022-11-20T09:59:50;6.40;1.00
3701;DHT22;1866;48.374;10.766;2022-11-20T10:02:27;6.40;1.00
3701;DHT22;1866;48.374;10.766;2022-11-20T10:04:58;6.30;1.00
3701;DHT22;1866;48.374;10.766;2022-11-20T10:07:38;6.30;1.00
3701;DHT22;1866;48.374;10.766;2022-11-20T10:10:14;6.30;1.00
3701;DHT22;1866;48.374;10.766;2022-11-20T10:12:55;6.30;1.00
3701;DHT22;1866;48.374;10.766;2022-11-20T10:15:34;6.40;1.00
3701;DHT22;1866;48.374;10.766;2022-11-20T10:18:11;6.40;1.00
3701;DHT22;1866;48.374;10.766;2022-11-20T10:20:47;6.50;1.00
3701;DHT22;1866;48.374;10.766;2022-11-20T10:23:29;6.50;1.00
3701;DHT22;1866;48.374;10.766;2022-11-20T10:26:02;6.60;1.00
3701;DHT22;1866;48.374;10.766;2022-11-20T10:28:49;6.60;1.00
3701;DHT22;1866;48.374;10.766;2022-11-20T10:31:31;6.60;1.00
3701;DHT22;1866;48.374;10.766;2022-11-20T10:34:05;6.70;1.00
3701;DHT22;1866;48.374;10.766;2022-11-20T10:36:36;6.80;1.00
3701;DHT22;1866;48.374;10.766;2022-11-20T10:39:07;6.80;1.00
3701;DHT22;1866;48.374;10.766;2022-11-20T10:41:41;6.80;1.00
3701;DHT22;1866;48.374;10.766;2022-11-20T10:44:14;6.60;1.00
3701;DHT22;1866;48.374;10.766;2022-11-20T10:47:02;6.70;1.00
3701;DHT22;1866;48.374;10.766;2022-11-20T10:49:33;6.60;1.00
3701;DHT22;1866;48.374;10.766;2022-11-20T10:52:09;6.60;1.00
3701;DHT22;1866;48.374;10.766;2022-11-20T10:54:43;6.60;1.00
3701;DHT22;1866;48.374;10.766;2022-11-20T10:57:20;6.50;1.00
3701;DHT22;1866;48.374;10.766;2022-11-20T10:59:59;6.50;1.00
3701;DHT22;1866;48.374;10.766;2022-11-20T11:02:33;6.50;1.00
3701;DHT22;1866;48.374;10.766;2022-11-20T11:05:12;6.50;1.00
3701;DHT22;1866;48.374;10.766;2022-11-20T11:07:44;6.40;1.00
3701;DHT22;1866;48.374;10.766;2022-11-20T11:10:15;6.30;1.00
3701;DHT22;1866;48.374;10.766;2022-11-20T11:12:45;6.40;1.00
3701;DHT22;1866;48.374;10.766;2022-11-20T11:15:25;6.40;1.00
3701;DHT22;1866;48.374;10.766;2022-11-20T11:17:53;6.50;1.00
3701;DHT22;1866;48.374;10.766;2022-11-20T11:20:22;6.50;1.00
3701;DHT22;1866;48.374;10.766;2022-11-20T11:22:52;6.50;1.00
3701;DHT22;1866;48.374;10.766;2022-11-20T11:25:26;6.50;1.00
3701;DHT22;1866;48.374;10.766;2022-11-20T11:27:54;6.50;1.00
3701;DHT22;1866;48.374;10.766;2022-11-20T11:30:23;6.50;1.00
3701;DHT22;1866;48.374;10.766;2022-11-20T11:32:51;6.50;1.00
3701;DHT22;1866;48.374;10.766;2022-11-20T11:35:29;6.50;1.00
3701;DHT22;1866;48.374;10.766;2022-11-20T11:38:03;6.50;1.00
3701;DHT22;1866;48.374;10.766;2022-11-20T11:40:33;6.50;1.00
3701;DHT22;1866;48.374;10.766;2022-11-20T11:43:03;6.50;1.00
3701;DHT22;1866;48.374;10.766;2022-11-20T11:45:31;6.50;1.00
3701;DHT22;1866;48.374;10.766;2022-11-20T11:47:58;6.50;1.00
3701;DHT22;1866;48.374;10.766;2022-11-20T11:50:29;6.50;1.00
3701;DHT22;1866;48.374;10.766;2022-11-20T11:53:03;6.50;1.00
3701;DHT22;1866;48.374;10.766;2022-11-20T11:55:35;6.50;1.00
3701;DHT22;1866;48.374;10.766;2022-11-20T11:58:13;6.40;1.00
3701;DHT22;1866;48.374;10.766;2022-11-20T12:00:48;6.50;1.00
3701;DHT22;1866;48.374;10.766;2022-11-20T12:03:22;6.50;1.00
3701;DHT22;1866;48.374;10.766;2022-11-20T12:05:57;6.50;1.00
3701;DHT22;1866;48.374;10.766;2022-11-20T12:08:30;6.50;1.00
3701;DHT22;1866;48.374;10.766;2022-11-20T12:11:02;6.40;1.00
3701;DHT22;1866;48.374;10.766;2022-11-20T12:13:40;6.40;1.00
3701;DHT22;1866;48.374;10.766;2022-11-20T12:16:12;6.40;1.00
3701;DHT22;1866;48.374;10.766;2022-11-20T12:18:40;6.40;1.00
3701;DHT22;1866;48.374;10.766;2022-11-20T12:21:18;6.40;1.00
3701;DHT22;1866;48.374;10.766;2022-11-20T12:24:01;6.30;1.00
3701;DHT22;1866;48.374;10.766;2022-11-20T12:26:47;6.40;1.00
3701;DHT22;1866;48.374;10.766;2022-11-20T12:29:23;6.50;1.00
3701;DHT22;1866;48.374;10.766;2022-11-20T12:32:10;6.50;1.00
3701;DHT22;1866;48.374;10.766;2022-11-20T12:34:53;6.50;1.00
3701;DHT22;1866;48.374;10.766;2022-11-20T12:37:36;6.50;1.00
3701;DHT22;1866;48.374;10.766;2022-11-20T12:40:18;6.50;1.00
3701;DHT22;1866;48.374;10.766;2022-11-20T12:43:00;6.50;1.00
3701;DHT22;1866;48.374;10.766;2022-11-20T12:46:03;6.50;1.00
3701;DHT22;1866;48.374;10.766;2022-11-20T12:48:42;6.40;1.00
3701;DHT22;1866;48.374;10.766;2022-11-20T12:54:19;6.40;1.00
3701;DHT22;1866;48.374;10.766;2022-11-20T12:56:56;6.60;1.00
3701;DHT22;1866;48.374;10.766;2022-11-20T12:59:39;6.70;1.00
3701;DHT22;1866;48.374;10.766;2022-11-20T13:02:22;6.70;1.00
3701;DHT22;1866;48.374;10.766;2022-11-20T13:05:05;6.60;1.00
3701;DHT22;1866;48.374;10.766;2022-11-20T13:07:38;6.80;1.00
3701;DHT22;1866;48.374;10.766;2022-11-20T13:10:18;6.70;1.00
3701;DHT22;1866;48.374;10.766;2022-11-20T13:12:54;6.60;1.00
3701;DHT22;1866;48.374;10.766;2022-11-20T13:15:31;6.70;1.00
3701;DHT22;1866;48.374;10.766;2022-11-20T13:18:02;6.80;1.00
3701;DHT22;1866;48.374;10.766;2022-11-20T13:20:33;6.60;1.00
3701;DHT22;1866;48.374;10.766;2022-11-20T13:23:02;6.70;1.00
3701;DHT22;1866;48.374;10.766;2022-11-20T13:25:32;6.70;1.00
3701;DHT22;1866;48.374;10.766;2022-11-20T13:28:00;6.70;1.00
3701;DHT22;1866;48.374;10.766;2022-11-20T13:30:28;6.70;1.00
3701;DHT22;1866;48.374;10.766;2022-11-20T13:32:57;6.70;1.00
3701;DHT22;1866;48.374;10.766;2022-11-20T13:35:30;6.60;1.00
3701;DHT22;1866;48.374;10.766;2022-11-20T13:38:07;6.70;1.00
3701;DHT22;1866;48.374;10.766;2022-11-20T13:40:37;6.70;1.00
3701;DHT22;1866;48.374;10.766;2022-11-20T13:43:20;6.50;1.00
3701;DHT22;1866;48.374;10.766;2022-11-20T13:45:59;6.70;1.00
3701;DHT22;1866;48.374;10.766;2022-11-20T13:48:30;6.50;1.00
3701;DHT22;1866;48.374;10.766;2022-11-20T13:51:11;6.80;1.00
3701;DHT22;1866;48.374;10.766;2022-11-20T13:54:09;6.80;1.00
3701;DHT22;1866;48.374;10.766;2022-11-20T13:56:52;6.70;1.00
3701;DHT22;1866;48.374;10.766;2022-11-20T13:59:34;6.60;1.00
3701;DHT22;1866;48.374;10.766;2022-11-20T14:02:09;6.60;1.00
3701;DHT22;1866;48.374;10.766;2022-11-20T14:04:42;6.70;1.00
3701;DHT22;1866;48.374;10.766;2022-11-20T14:07:11;6.80;1.00
3701;DHT22;1866;48.374;10.766;2022-11-20T14:09:38;6.90;1.00
3701;DHT22;1866;48.374;10.766;2022-11-20T14:12:16;6.70;1.00
3701;DHT22;1866;48.374;10.766;2022-11-20T14:14:50;6.70;1.00
3701;DHT22;1866;48.374;10.766;2022-11-20T14:17:20;6.90;1.00
3701;DHT22;1866;48.374;10.766;2022-11-20T14:19:48;6.80;1.00
3701;DHT22;1866;48.374;10.766;2022-11-20T14:22:18;6.70;1.00
3701;DHT22;1866;48.374;10.766;2022-11-20T14:24:46;6.60;1.00
3701;DHT22;1866;48.374;10.766;2022-11-20T14:27:19;6.70;1.00
3701;DHT22;1866;48.374;10.766;2022-11-20T14:29:49;6.60;1.00
3701;DHT22;1866;48.374;10.766;2022-11-20T14:32:27;6.60;1.00
3701;DHT22;1866;48.374;10.766;2022-11-20T14:34:59;6.60;1.00
3701;DHT22;1866;48.374;10.766;2022-11-20T14:37:29;6.60;1.00
3701;DHT22;1866;48.374;10.766;2022-11-20T14:39:59;6.70;1.00
3701;DHT22;1866;48.374;10.766;2022-11-20T14:42:29;6.70;1.00
3701;DHT22;1866;48.374;10.766;2022-11-20T14:44:58;6.80;1.00
3701;DHT22;1866;48.374;10.766;2022-11-20T14:47:26;6.70;1.00
3701;DHT22;1866;48.374;10.766;2022-11-20T14:49:57;6.80;1.00
3701;DHT22;1866;48.374;10.766;2022-11-20T14:52:26;6.80;1.00
3701;DHT22;1866;48.374;10.766;2022-11-20T14:54:54;6.70;1.00
3701;DHT22;1866;48.374;10.766;2022-11-20T14:57:24;6.80;1.00
3701;DHT22;1866;48.374;10.766;2022-11-20T15:00:04;6.60;1.00
3701;DHT22;1866;48.374;10.766;2022-11-20T15:02:31;6.50;1.00
3701;DHT22;1866;48.374;10.766;2022-11-20T15:04:59;6.60;1.00
3701;DHT22;1866;48.374;10.766;2022-11-20T15:07:30;6.60;1.00
3701;DHT22;1866;48.374;10.766;2022-11-20T15:10:03;6.60;1.00
3701;DHT22;1866;48.374;10.766;2022-11-20T15:12:30;6.70;1.00
3701;DHT22;1866;48.374;10.766;2022-11-20T15:15:00;6.50;1.00
3701;DHT22;1866;48.374;10.766;2022-11-20T15:17:29;6.40;1.00
3701;DHT22;1866;48.374;10.766;2022-11-20T15:20:01;6.40;1.00
3701;DHT22;1866;48.374;10.766;2022-11-20T15:22:29;6.40;1.00
3701;DHT22;1866;48.374;10.766;2022-11-20T15:24:58;6.40;1.00
3701;DHT22;1866;48.374;10.766;2022-11-20T15:27:25;6.30;1.00
3701;DHT22;1866;48.374;10.766;2022-11-20T15:29:54;6.30;1.00
3701;DHT22;1866;48.374;10.766;2022-11-20T15:32:22;6.20;1.00
3701;DHT22;1866;48.374;10.766;2022-11-20T15:34:56;6.20;1.00
3701;DHT22;1866;48.374;10.766;2022-11-20T15:37:26;6.10;1.00
3701;DHT22;1866;48.374;10.766;2022-11-20T15:39:57;6.10;1.00
3701;DHT22;1866;48.374;10.766;2022-11-20T15:42:25;6.20;1.00
3701;DHT22;1866;48.374;10.766;2022-11-20T15:44:52;6.30;1.00
3701;DHT22;1866;48.374;10.766;2022-11-20T15:47:24;6.20;1.00
3701;DHT22;1866;48.374;10.766;2022-11-20T15:49:52;6.20;1.00
3701;DHT22;1866;48.374;10.766;2022-11-20T15:52:19;6.10;1.00
3701;DHT22;1866;48.374;10.766;2022-11-20T15:54:47;6.20;1.00
3701;DHT22;1866;48.374;10.766;2022-11-20T15:57:14;6.10;1.00
3701;DHT22;1866;48.374;10.766;2022-11-20T15:59:42;6.00;1.00
3701;DHT22;1866;48.374;10.766;2022-11-20T16:02:11;6.00;1.00
3701;DHT22;1866;48.374;10.766;2022-11-20T16:04:39;6.10;1.00
3701;DHT22;1866;48.374;10.766;2022-11-20T16:07:07;6.00;1.00
3701;DHT22;1866;48.374;10.766;2022-11-20T16:09:34;5.80;1.00
3701;DHT22;1866;48.374;10.766;2022-11-20T16:12:01;5.70;1.00
3701;DHT22;1866;48.374;10.766;2022-11-20T16:14:29;5.80;1.00
3701;DHT22;1866;48.374;10.766;2022-11-20T16:17:28;5.80;1.00
3701;DHT22;1866;48.374;10.766;2022-11-20T16:20:12;5.90;1.00
3701;DHT22;1866;48.374;10.766;2022-11-20T16:22:39;5.70;1.00
3701;DHT22;1866;48.374;10.766;2022-11-20T16:25:07;5.90;1.00
3701;DHT22;1866;48.374;10.766;2022-11-20T16:27:34;5.90;1.00
3701;DHT22;1866;48.374;10.766;2022-11-20T16:30:01;5.80;1.00
3701;DHT22;1866;48.374;10.766;2022-11-20T16:32:29;5.70;1.00
3701;DHT22;1866;48.374;10.766;2022-11-20T16:34:56;5.80;1.00
3701;DHT22;1866;48.374;10.766;2022-11-20T16:37:27;5.70;1.00
3701;DHT22;1866;48.374;10.766;2022-11-20T16:39:54;5.80;1.00
3701;DHT22;1866;48.374;10.766;2022-11-20T16:42:22;5.70;1.00
3701;DHT22;1866;48.374;10.766;2022-11-20T16:44:49;5.70;1.00